Bluff, Alabama
Current Conditions -  °F | °C
As of 10:15 AM on Thursday 30 Oct 2014 (Local Time) from KJFX Reporting Station
Clear Clear  
Wind Chill: 61°   Ceiling: Unl
Heat Index: 61°   Visibility: 10mi
Dew Point: 46°   Wind: 5mph
Humidity: 59%   Direction: 40°NE
Pressure: 30.17"   Gusts: NA
Location:  33.6949°N, 87.8413°W
Report Text: KJFX 301515Z AUTO 04004KT 10SM CLR 16/08 A3017 RMK A02 P-128
Loading
Personal Weather Stations






























Interactive Weather Map
Tropical Storm Tracking
New forecast layout! Learn more

10-Day Weather Forecast

Advertisements
Track Severe Weather on mobile